sensor_id;sensor_type;location;lat;lon;timestamp;P1;durP1;ratioP1;P2;durP2;ratioP2
48363;SDS011;34170;54.364;18.582;2023-03-21T00:02:09;12.00;;;5.82;;
48363;SDS011;34170;54.364;18.582;2023-03-21T00:04:37;11.65;;;5.93;;
48363;SDS011;34170;54.364;18.582;2023-03-21T00:07:17;11.82;;;5.80;;
48363;SDS011;34170;54.364;18.582;2023-03-21T00:09:45;15.05;;;6.40;;
48363;SDS011;34170;54.364;18.582;2023-03-21T00:12:12;11.68;;;6.13;;
48363;SDS011;34170;54.364;18.582;2023-03-21T00:14:40;11.00;;;5.95;;
48363;SDS011;34170;54.364;18.582;2023-03-21T00:17:07;14.82;;;6.60;;
48363;SDS011;34170;54.364;18.582;2023-03-21T00:19:37;11.25;;;5.88;;
48363;SDS011;34170;54.364;18.582;2023-03-21T00:22:07;10.30;;;5.68;;
48363;SDS011;34170;54.364;18.582;2023-03-21T00:24:35;9.98;;;5.68;;
48363;SDS011;34170;54.364;18.582;2023-03-21T00:27:03;8.20;;;5.38;;
48363;SDS011;34170;54.364;18.582;2023-03-21T00:29:54;8.80;;;5.05;;
48363;SDS011;34170;54.364;18.582;2023-03-21T00:32:21;7.88;;;4.78;;
48363;SDS011;34170;54.364;18.582;2023-03-21T00:34:49;6.70;;;4.25;;
48363;SDS011;34170;54.364;18.582;2023-03-21T00:37:37;7.78;;;4.95;;
48363;SDS011;34170;54.364;18.582;2023-03-21T00:40:05;7.15;;;4.28;;
48363;SDS011;34170;54.364;18.582;2023-03-21T00:42:45;7.07;;;4.30;;
48363;SDS011;34170;54.364;18.582;2023-03-21T00:45:12;9.77;;;4.60;;
48363;SDS011;34170;54.364;18.582;2023-03-21T00:47:42;9.40;;;4.65;;
48363;SDS011;34170;54.364;18.582;2023-03-21T00:50:11;7.70;;;3.97;;
48363;SDS011;34170;54.364;18.582;2023-03-21T00:52:38;7.35;;;4.13;;
48363;SDS011;34170;54.364;18.582;2023-03-21T00:55:09;7.25;;;4.07;;
48363;SDS011;34170;54.364;18.582;2023-03-21T00:57:40;9.85;;;4.80;;
48363;SDS011;34170;54.364;18.582;2023-03-21T01:00:13;7.90;;;4.05;;
48363;SDS011;34170;54.364;18.582;2023-03-21T01:02:41;7.97;;;4.68;;
48363;SDS011;34170;54.364;18.582;2023-03-21T01:05:43;7.70;;;3.97;;
48363;SDS011;34170;54.364;18.582;2023-03-21T01:08:35;7.00;;;4.20;;
48363;SDS011;34170;54.364;18.582;2023-03-21T01:11:19;6.55;;;3.72;;
48363;SDS011;34170;54.364;18.582;2023-03-21T01:13:48;7.65;;;4.10;;
48363;SDS011;34170;54.364;18.582;2023-03-21T01:16:28;8.52;;;4.13;;
48363;SDS011;34170;54.364;18.582;2023-03-21T01:18:56;7.40;;;3.97;;
48363;SDS011;34170;54.364;18.582;2023-03-21T01:21:24;8.05;;;4.40;;
48363;SDS011;34170;54.364;18.582;2023-03-21T01:23:51;7.32;;;4.80;;
48363;SDS011;34170;54.364;18.582;2023-03-21T01:26:19;7.40;;;4.45;;
48363;SDS011;34170;54.364;18.582;2023-03-21T01:28:46;6.82;;;3.97;;
48363;SDS011;34170;54.364;18.582;2023-03-21T01:31:14;7.22;;;3.85;;
48363;SDS011;34170;54.364;18.582;2023-03-21T01:33:43;8.38;;;4.78;;
48363;SDS011;34170;54.364;18.582;2023-03-21T01:36:18;7.43;;;4.57;;
48363;SDS011;34170;54.364;18.582;2023-03-21T01:38:52;6.60;;;4.30;;
48363;SDS011;34170;54.364;18.582;2023-03-21T01:44:17;6.85;;;3.97;;
48363;SDS011;34170;54.364;18.582;2023-03-21T01:46:46;6.50;;;3.90;;
48363;SDS011;34170;54.364;18.582;2023-03-21T01:49:46;6.68;;;4.05;;
48363;SDS011;34170;54.364;18.582;2023-03-21T01:52:28;6.78;;;4.05;;
48363;SDS011;34170;54.364;18.582;2023-03-21T01:55:13;6.70;;;3.53;;
48363;SDS011;34170;54.364;18.582;2023-03-21T01:57:55;6.43;;;4.03;;
48363;SDS011;34170;54.364;18.582;2023-03-21T02:00:52;6.45;;;3.60;;
48363;SDS011;34170;54.364;18.582;2023-03-21T02:03:33;5.80;;;4.03;;
48363;SDS011;34170;54.364;18.582;2023-03-21T02:06:27;6.63;;;3.83;;
48363;SDS011;34170;54.364;18.582;2023-03-21T02:09:10;7.63;;;3.83;;
48363;SDS011;34170;54.364;18.582;2023-03-21T02:11:39;5.07;;;3.42;;
48363;SDS011;34170;54.364;18.582;2023-03-21T02:14:14;5.93;;;4.00;;
48363;SDS011;34170;54.364;18.582;2023-03-21T02:28:27;8.63;;;4.32;;
48363;SDS011;34170;54.364;18.582;2023-03-21T02:47:23;9.18;;;4.53;;
48363;SDS011;34170;54.364;18.582;2023-03-21T02:52:35;8.93;;;4.93;;
48363;SDS011;34170;54.364;18.582;2023-03-21T02:55:11;10.07;;;5.10;;
48363;SDS011;34170;54.364;18.582;2023-03-21T02:57:56;9.70;;;4.47;;
48363;SDS011;34170;54.364;18.582;2023-03-21T03:00:39;11.63;;;5.07;;
48363;SDS011;34170;54.364;18.582;2023-03-21T03:03:13;9.35;;;4.53;;
48363;SDS011;34170;54.364;18.582;2023-03-21T03:05:58;7.38;;;4.47;;
48363;SDS011;34170;54.364;18.582;2023-03-21T03:08:34;7.97;;;4.17;;
48363;SDS011;34170;54.364;18.582;2023-03-21T03:11:32;17.77;;;9.77;;
48363;SDS011;34170;54.364;18.582;2023-03-21T03:17:09;11.25;;;5.18;;
48363;SDS011;34170;54.364;18.582;2023-03-21T03:19:56;9.02;;;4.75;;
48363;SDS011;34170;54.364;18.582;2023-03-21T03:22:49;9.35;;;5.15;;
48363;SDS011;34170;54.364;18.582;2023-03-21T03:25:19;11.43;;;5.85;;
48363;SDS011;34170;54.364;18.582;2023-03-21T03:28:08;8.43;;;4.80;;
48363;SDS011;34170;54.364;18.582;2023-03-21T03:30:40;9.27;;;4.95;;
48363;SDS011;34170;54.364;18.582;2023-03-21T03:33:30;13.25;;;6.22;;
48363;SDS011;34170;54.364;18.582;2023-03-21T03:36:01;9.50;;;5.10;;
48363;SDS011;34170;54.364;18.582;2023-03-21T03:38:34;12.27;;;5.78;;
48363;SDS011;34170;54.364;18.582;2023-03-21T03:41:10;14.50;;;6.32;;
48363;SDS011;34170;54.364;18.582;2023-03-21T03:43:51;12.00;;;6.15;;
48363;SDS011;34170;54.364;18.582;2023-03-21T03:52:26;13.27;;;6.22;;
48363;SDS011;34170;54.364;18.582;2023-03-21T03:55:02;18.08;;;7.88;;
48363;SDS011;34170;54.364;18.582;2023-03-21T03:57:35;13.25;;;6.65;;
48363;SDS011;34170;54.364;18.582;2023-03-21T04:00:03;13.68;;;6.38;;
48363;SDS011;34170;54.364;18.582;2023-03-21T04:02:43;11.10;;;5.53;;
48363;SDS011;34170;54.364;18.582;2023-03-21T04:05:16;12.45;;;5.90;;
48363;SDS011;34170;54.364;18.582;2023-03-21T04:07:47;12.80;;;6.60;;
48363;SDS011;34170;54.364;18.582;2023-03-21T04:10:26;16.23;;;6.07;;
48363;SDS011;34170;54.364;18.582;2023-03-21T04:12:54;13.05;;;6.00;;
48363;SDS011;34170;54.364;18.582;2023-03-21T04:15:30;13.15;;;5.97;;
48363;SDS011;34170;54.364;18.582;2023-03-21T04:18:05;16.05;;;8.15;;
48363;SDS011;34170;54.364;18.582;2023-03-21T04:20:32;16.23;;;7.57;;
48363;SDS011;34170;54.364;18.582;2023-03-21T04:23:04;16.38;;;6.70;;
48363;SDS011;34170;54.364;18.582;2023-03-21T04:25:33;11.63;;;6.32;;
48363;SDS011;34170;54.364;18.582;2023-03-21T04:28:04;13.68;;;6.68;;
48363;SDS011;34170;54.364;18.582;2023-03-21T04:30:50;13.57;;;7.03;;
48363;SDS011;34170;54.364;18.582;2023-03-21T04:33:40;14.18;;;6.35;;
48363;SDS011;34170;54.364;18.582;2023-03-21T04:36:08;14.65;;;6.82;;
48363;SDS011;34170;54.364;18.582;2023-03-21T04:38:44;13.00;;;7.03;;
48363;SDS011;34170;54.364;18.582;2023-03-21T04:41:15;13.60;;;6.87;;
48363;SDS011;34170;54.364;18.582;2023-03-21T04:43:43;11.43;;;6.10;;
48363;SDS011;34170;54.364;18.582;2023-03-21T04:46:11;14.00;;;6.72;;
48363;SDS011;34170;54.364;18.582;2023-03-21T04:48:39;13.20;;;6.32;;
48363;SDS011;34170;54.364;18.582;2023-03-21T04:51:06;14.43;;;6.82;;
48363;SDS011;34170;54.364;18.582;2023-03-21T04:53:34;13.48;;;6.22;;
48363;SDS011;34170;54.364;18.582;2023-03-21T04:56:01;11.07;;;5.43;;
48363;SDS011;34170;54.364;18.582;2023-03-21T04:58:28;10.05;;;5.40;;
48363;SDS011;34170;54.364;18.582;2023-03-21T05:00:57;12.23;;;5.35;;
48363;SDS011;34170;54.364;18.582;2023-03-21T05:03:25;10.18;;;5.15;;
48363;SDS011;34170;54.364;18.582;2023-03-21T05:05:54;8.52;;;4.57;;
48363;SDS011;34170;54.364;18.582;2023-03-21T05:08:22;8.63;;;3.55;;
48363;SDS011;34170;54.364;18.582;2023-03-21T05:10:49;11.20;;;3.97;;
48363;SDS011;34170;54.364;18.582;2023-03-21T05:13:17;7.47;;;3.42;;
48363;SDS011;34170;54.364;18.582;2023-03-21T05:15:45;9.02;;;3.53;;
48363;SDS011;34170;54.364;18.582;2023-03-21T05:18:13;9.80;;;3.42;;
48363;SDS011;34170;54.364;18.582;2023-03-21T05:20:57;8.15;;;3.17;;
48363;SDS011;34170;54.364;18.582;2023-03-21T05:23:25;6.78;;;3.28;;
48363;SDS011;34170;54.364;18.582;2023-03-21T05:25:57;8.00;;;3.00;;
48363;SDS011;34170;54.364;18.582;2023-03-21T05:28:51;9.30;;;2.80;;
48363;SDS011;34170;54.364;18.582;2023-03-21T05:31:19;5.28;;;2.55;;
48363;SDS011;34170;54.364;18.582;2023-03-21T05:33:52;6.68;;;2.95;;
48363;SDS011;34170;54.364;18.582;2023-03-21T05:36:19;6.07;;;2.47;;
48363;SDS011;34170;54.364;18.582;2023-03-21T05:38:47;5.85;;;2.42;;
48363;SDS011;34170;54.364;18.582;2023-03-21T05:41:15;5.15;;;2.83;;
48363;SDS011;34170;54.364;18.582;2023-03-21T05:43:45;18.52;;;11.15;;
48363;SDS011;34170;54.364;18.582;2023-03-21T05:46:14;6.93;;;2.88;;
48363;SDS011;34170;54.364;18.582;2023-03-21T05:48:42;7.00;;;3.45;;
48363;SDS011;34170;54.364;18.582;2023-03-21T05:51:15;6.70;;;3.33;;
48363;SDS011;34170;54.364;18.582;2023-03-21T05:53:44;7.20;;;2.90;;
48363;SDS011;34170;54.364;18.582;2023-03-21T05:56:13;6.82;;;3.03;;
48363;SDS011;34170;54.364;18.582;2023-03-21T05:58:58;7.57;;;3.45;;
48363;SDS011;34170;54.364;18.582;2023-03-21T06:01:26;6.13;;;3.00;;
48363;SDS011;34170;54.364;18.582;2023-03-21T06:04:04;8.63;;;3.13;;
48363;SDS011;34170;54.364;18.582;2023-03-21T06:06:32;7.63;;;3.33;;
48363;SDS011;34170;54.364;18.582;2023-03-21T06:09:01;5.95;;;3.20;;
48363;SDS011;34170;54.364;18.582;2023-03-21T06:11:30;7.13;;;3.15;;
48363;SDS011;34170;54.364;18.582;2023-03-21T06:14:21;8.93;;;3.28;;
48363;SDS011;34170;54.364;18.582;2023-03-21T06:17:05;8.93;;;3.30;;
48363;SDS011;34170;54.364;18.582;2023-03-21T06:19:39;5.65;;;2.97;;
48363;SDS011;34170;54.364;18.582;2023-03-21T06:22:12;8.50;;;3.30;;
48363;SDS011;34170;54.364;18.582;2023-03-21T06:24:40;8.88;;;3.72;;
48363;SDS011;34170;54.364;18.582;2023-03-21T06:27:08;9.85;;;3.17;;
48363;SDS011;34170;54.364;18.582;2023-03-21T06:29:48;7.45;;;3.28;;
48363;SDS011;34170;54.364;18.582;2023-03-21T06:32:16;11.10;;;3.95;;
48363;SDS011;34170;54.364;18.582;2023-03-21T06:34:44;9.88;;;3.53;;
48363;SDS011;34170;54.364;18.582;2023-03-21T06:37:14;7.32;;;3.38;;
48363;SDS011;34170;54.364;18.582;2023-03-21T06:39:41;7.32;;;3.10;;
48363;SDS011;34170;54.364;18.582;2023-03-21T06:42:09;11.73;;;3.30;;
48363;SDS011;34170;54.364;18.582;2023-03-21T06:44:38;9.18;;;3.95;;
48363;SDS011;34170;54.364;18.582;2023-03-21T06:47:11;6.32;;;2.83;;
48363;SDS011;34170;54.364;18.582;2023-03-21T06:49:40;8.90;;;2.90;;
48363;SDS011;34170;54.364;18.582;2023-03-21T06:52:11;6.80;;;3.17;;
48363;SDS011;34170;54.364;18.582;2023-03-21T06:54:39;9.00;;;3.85;;
48363;SDS011;34170;54.364;18.582;2023-03-21T06:57:11;7.50;;;3.50;;
48363;SDS011;34170;54.364;18.582;2023-03-21T06:59:40;10.27;;;3.10;;
48363;SDS011;34170;54.364;18.582;2023-03-21T07:02:17;9.27;;;3.20;;
48363;SDS011;34170;54.364;18.582;2023-03-21T07:04:58;7.65;;;3.33;;
48363;SDS011;34170;54.364;18.582;2023-03-21T07:07:27;8.68;;;3.33;;
48363;SDS011;34170;54.364;18.582;2023-03-21T07:09:56;6.47;;;3.42;;
48363;SDS011;34170;54.364;18.582;2023-03-21T07:12:25;8.02;;;3.53;;
48363;SDS011;34170;54.364;18.582;2023-03-21T07:15:08;7.95;;;3.58;;
48363;SDS011;34170;54.364;18.582;2023-03-21T07:17:37;4.03;;;2.47;;
48363;SDS011;34170;54.364;18.582;2023-03-21T07:20:05;5.38;;;2.75;;
48363;SDS011;34170;54.364;18.582;2023-03-21T07:22:34;5.55;;;2.83;;
48363;SDS011;34170;54.364;18.582;2023-03-21T07:25:02;9.90;;;4.28;;
48363;SDS011;34170;54.364;18.582;2023-03-21T07:27:37;7.10;;;3.30;;
48363;SDS011;34170;54.364;18.582;2023-03-21T07:30:07;9.18;;;3.47;;
48363;SDS011;34170;54.364;18.582;2023-03-21T07:32:36;6.55;;;3.10;;
48363;SDS011;34170;54.364;18.582;2023-03-21T07:35:09;8.80;;;3.30;;
48363;SDS011;34170;54.364;18.582;2023-03-21T07:37:39;11.13;;;3.25;;
48363;SDS011;34170;54.364;18.582;2023-03-21T07:40:07;10.50;;;3.20;;
48363;SDS011;34170;54.364;18.582;2023-03-21T07:42:38;9.18;;;3.45;;
48363;SDS011;34170;54.364;18.582;2023-03-21T07:45:08;11.15;;;3.67;;
48363;SDS011;34170;54.364;18.582;2023-03-21T07:47:37;9.40;;;3.65;;
48363;SDS011;34170;54.364;18.582;2023-03-21T07:50:04;9.40;;;3.80;;
48363;SDS011;34170;54.364;18.582;2023-03-21T07:52:32;7.63;;;3.22;;
48363;SDS011;34170;54.364;18.582;2023-03-21T07:54:59;7.60;;;3.13;;
48363;SDS011;34170;54.364;18.582;2023-03-21T07:57:26;5.03;;;3.05;;
48363;SDS011;34170;54.364;18.582;2023-03-21T07:59:54;5.20;;;3.15;;
48363;SDS011;34170;54.364;18.582;2023-03-21T08:02:21;11.25;;;3.20;;
48363;SDS011;34170;54.364;18.582;2023-03-21T08:04:49;6.10;;;3.33;;
48363;SDS011;34170;54.364;18.582;2023-03-21T08:07:17;12.82;;;4.28;;
48363;SDS011;34170;54.364;18.582;2023-03-21T08:09:45;5.90;;;2.88;;
48363;SDS011;34170;54.364;18.582;2023-03-21T08:12:12;5.95;;;2.92;;
48363;SDS011;34170;54.364;18.582;2023-03-21T08:14:40;8.13;;;3.47;;
48363;SDS011;34170;54.364;18.582;2023-03-21T08:17:07;7.45;;;3.63;;
48363;SDS011;34170;54.364;18.582;2023-03-21T08:19:35;9.23;;;3.88;;
48363;SDS011;34170;54.364;18.582;2023-03-21T08:22:03;5.85;;;2.80;;
48363;SDS011;34170;54.364;18.582;2023-03-21T08:24:32;7.75;;;3.05;;
48363;SDS011;34170;54.364;18.582;2023-03-21T08:27:00;6.10;;;3.15;;
48363;SDS011;34170;54.364;18.582;2023-03-21T08:29:27;6.15;;;3.00;;
48363;SDS011;34170;54.364;18.582;2023-03-21T08:31:55;6.10;;;3.17;;
48363;SDS011;34170;54.364;18.582;2023-03-21T08:34:24;7.63;;;3.20;;
48363;SDS011;34170;54.364;18.582;2023-03-21T08:36:53;8.27;;;2.97;;
48363;SDS011;34170;54.364;18.582;2023-03-21T08:39:20;5.40;;;3.00;;
48363;SDS011;34170;54.364;18.582;2023-03-21T08:41:48;6.95;;;3.38;;
48363;SDS011;34170;54.364;18.582;2023-03-21T08:44:16;7.28;;;2.95;;
48363;SDS011;34170;54.364;18.582;2023-03-21T08:46:43;5.57;;;2.78;;
48363;SDS011;34170;54.364;18.582;2023-03-21T08:49:11;8.50;;;2.90;;
48363;SDS011;34170;54.364;18.582;2023-03-21T08:51:38;5.85;;;2.97;;
48363;SDS011;34170;54.364;18.582;2023-03-21T08:54:09;6.82;;;2.65;;
48363;SDS011;34170;54.364;18.582;2023-03-21T08:56:44;5.55;;;2.70;;
48363;SDS011;34170;54.364;18.582;2023-03-21T08:59:12;5.28;;;2.80;;
48363;SDS011;34170;54.364;18.582;2023-03-21T09:01:39;4.88;;;2.45;;
48363;SDS011;34170;54.364;18.582;2023-03-21T09:04:07;8.82;;;3.22;;
48363;SDS011;34170;54.364;18.582;2023-03-21T09:06:37;6.53;;;2.60;;
48363;SDS011;34170;54.364;18.582;2023-03-21T09:09:11;6.28;;;3.00;;
48363;SDS011;34170;54.364;18.582;2023-03-21T09:11:38;7.30;;;2.45;;
48363;SDS011;34170;54.364;18.582;2023-03-21T09:14:06;7.00;;;2.10;;
48363;SDS011;34170;54.364;18.582;2023-03-21T09:16:34;8.63;;;2.28;;
48363;SDS011;34170;54.364;18.582;2023-03-21T09:19:01;4.72;;;1.88;;
48363;SDS011;34170;54.364;18.582;2023-03-21T09:21:30;4.65;;;2.15;;
48363;SDS011;34170;54.364;18.582;2023-03-21T09:23:58;5.72;;;2.10;;
48363;SDS011;34170;54.364;18.582;2023-03-21T09:26:26;6.43;;;2.10;;
48363;SDS011;34170;54.364;18.582;2023-03-21T09:28:54;3.28;;;1.70;;
48363;SDS011;34170;54.364;18.582;2023-03-21T09:31:22;6.05;;;2.38;;
48363;SDS011;34170;54.364;18.582;2023-03-21T09:33:49;6.03;;;2.25;;
48363;SDS011;34170;54.364;18.582;2023-03-21T09:36:18;4.07;;;2.25;;
48363;SDS011;34170;54.364;18.582;2023-03-21T09:38:48;7.78;;;2.42;;
48363;SDS011;34170;54.364;18.582;2023-03-21T09:46:57;8.45;;;2.42;;
48363;SDS011;34170;54.364;18.582;2023-03-21T09:49:40;6.45;;;2.35;;
48363;SDS011;34170;54.364;18.582;2023-03-21T09:52:25;6.00;;;2.03;;
48363;SDS011;34170;54.364;18.582;2023-03-21T09:54:58;4.25;;;1.67;;
48363;SDS011;34170;54.364;18.582;2023-03-21T10:00:05;5.20;;;2.05;;
48363;SDS011;34170;54.364;18.582;2023-03-21T10:02:45;8.07;;;2.80;;
48363;SDS011;34170;54.364;18.582;2023-03-21T10:05:28;4.78;;;2.03;;
48363;SDS011;34170;54.364;18.582;2023-03-21T10:10:37;4.78;;;2.40;;
48363;SDS011;34170;54.364;18.582;2023-03-21T10:13:13;4.00;;;2.15;;
48363;SDS011;34170;54.364;18.582;2023-03-21T10:15:43;5.68;;;1.90;;
48363;SDS011;34170;54.364;18.582;2023-03-21T10:18:12;4.55;;;1.92;;
48363;SDS011;34170;54.364;18.582;2023-03-21T10:20:45;4.28;;;1.73;;
48363;SDS011;34170;54.364;18.582;2023-03-21T10:23:13;4.68;;;1.10;;
48363;SDS011;34170;54.364;18.582;2023-03-21T10:25:45;3.20;;;1.67;;
48363;SDS011;34170;54.364;18.582;2023-03-21T10:28:24;1.77;;;1.27;;
48363;SDS011;34170;54.364;18.582;2023-03-21T10:31:05;2.47;;;1.20;;
48363;SDS011;34170;54.364;18.582;2023-03-21T10:33:37;3.30;;;1.35;;
48363;SDS011;34170;54.364;18.582;2023-03-21T10:36:09;3.65;;;1.48;;
48363;SDS011;34170;54.364;18.582;2023-03-21T10:38:44;3.55;;;1.48;;
48363;SDS011;34170;54.364;18.582;2023-03-21T10:41:15;5.38;;;1.38;;
48363;SDS011;34170;54.364;18.582;2023-03-21T10:43:43;6.00;;;1.83;;
48363;SDS011;34170;54.364;18.582;2023-03-21T10:46:18;4.55;;;1.38;;
48363;SDS011;34170;54.364;18.582;2023-03-21T10:48:49;3.55;;;1.35;;
48363;SDS011;34170;54.364;18.582;2023-03-21T10:51:20;5.15;;;1.40;;
48363;SDS011;34170;54.364;18.582;2023-03-21T10:53:57;3.08;;;1.45;;
48363;SDS011;34170;54.364;18.582;2023-03-21T10:56:30;3.67;;;1.30;;
48363;SDS011;34170;54.364;18.582;2023-03-21T10:59:03;3.67;;;1.77;;
48363;SDS011;34170;54.364;18.582;2023-03-21T11:01:35;3.50;;;1.17;;
48363;SDS011;34170;54.364;18.582;2023-03-21T11:04:13;2.60;;;1.48;;
48363;SDS011;34170;54.364;18.582;2023-03-21T11:06:53;3.72;;;1.63;;
48363;SDS011;34170;54.364;18.582;2023-03-21T11:10:08;3.58;;;1.60;;
48363;SDS011;34170;54.364;18.582;2023-03-21T11:12:45;7.00;;;1.30;;
48363;SDS011;34170;54.364;18.582;2023-03-21T11:18:18;5.07;;;1.45;;
48363;SDS011;34170;54.364;18.582;2023-03-21T11:20:49;5.95;;;1.40;;
48363;SDS011;34170;54.364;18.582;2023-03-21T11:23:26;2.83;;;1.30;;
48363;SDS011;34170;54.364;18.582;2023-03-21T11:25:57;2.95;;;1.20;;
48363;SDS011;34170;54.364;18.582;2023-03-21T11:28:35;2.75;;;1.42;;
48363;SDS011;34170;54.364;18.582;2023-03-21T11:31:04;4.70;;;1.92;;
48363;SDS011;34170;54.364;18.582;2023-03-21T11:33:36;5.03;;;1.20;;
48363;SDS011;34170;54.364;18.582;2023-03-21T11:38:58;4.57;;;1.42;;
48363;SDS011;34170;54.364;18.582;2023-03-21T11:43:59;4.25;;;1.88;;
48363;SDS011;34170;54.364;18.582;2023-03-21T11:46:29;4.95;;;2.03;;
48363;SDS011;34170;54.364;18.582;2023-03-21T11:48:58;4.47;;;1.70;;
48363;SDS011;34170;54.364;18.582;2023-03-21T11:54:21;3.58;;;1.27;;
48363;SDS011;34170;54.364;18.582;2023-03-21T12:02:57;8.95;;;1.80;;
48363;SDS011;34170;54.364;18.582;2023-03-21T12:05:47;5.72;;;2.28;;
48363;SDS011;34170;54.364;18.582;2023-03-21T12:25:15;6.18;;;2.70;;
48363;SDS011;34170;54.364;18.582;2023-03-21T12:38:27;10.05;;;3.47;;
48363;SDS011;34170;54.364;18.582;2023-03-21T12:41:12;6.13;;;2.90;;
48363;SDS011;34170;54.364;18.582;2023-03-21T12:43:49;12.50;;;4.43;;
48363;SDS011;34170;54.364;18.582;2023-03-21T12:46:28;9.80;;;3.42;;
48363;SDS011;34170;54.364;18.582;2023-03-21T12:49:27;7.15;;;3.75;;
48363;SDS011;34170;54.364;18.582;2023-03-21T12:52:00;7.68;;;3.63;;
48363;SDS011;34170;54.364;18.582;2023-03-21T12:54:40;12.73;;;4.28;;
48363;SDS011;34170;54.364;18.582;2023-03-21T12:59:49;6.40;;;3.50;;
48363;SDS011;34170;54.364;18.582;2023-03-21T13:02:32;5.85;;;3.00;;
48363;SDS011;34170;54.364;18.582;2023-03-21T13:05:06;10.73;;;3.75;;
48363;SDS011;34170;54.364;18.582;2023-03-21T13:07:37;6.72;;;3.47;;
48363;SDS011;34170;54.364;18.582;2023-03-21T13:10:16;8.25;;;4.07;;
48363;SDS011;34170;54.364;18.582;2023-03-21T13:15:43;7.72;;;3.80;;
48363;SDS011;34170;54.364;18.582;2023-03-21T13:23:54;8.80;;;3.67;;
48363;SDS011;34170;54.364;18.582;2023-03-21T13:26:37;8.38;;;4.18;;
48363;SDS011;34170;54.364;18.582;2023-03-21T13:29:20;7.57;;;4.47;;
48363;SDS011;34170;54.364;18.582;2023-03-21T13:31:50;10.30;;;3.97;;
48363;SDS011;34170;54.364;18.582;2023-03-21T13:34:23;12.77;;;5.85;;
48363;SDS011;34170;54.364;18.582;2023-03-21T13:36:52;12.93;;;5.13;;
48363;SDS011;34170;54.364;18.582;2023-03-21T13:39:23;13.18;;;5.00;;
48363;SDS011;34170;54.364;18.582;2023-03-21T13:41:53;8.20;;;5.03;;
48363;SDS011;34170;54.364;18.582;2023-03-21T13:44:31;16.02;;;5.03;;
48363;SDS011;34170;54.364;18.582;2023-03-21T13:47:52;12.27;;;4.97;;
48363;SDS011;34170;54.364;18.582;2023-03-21T13:50:22;16.13;;;5.40;;
48363;SDS011;34170;54.364;18.582;2023-03-21T13:55:42;14.13;;;5.18;;
48363;SDS011;34170;54.364;18.582;2023-03-21T14:03:56;17.50;;;5.75;;
48363;SDS011;34170;54.364;18.582;2023-03-21T14:06:35;25.42;;;6.35;;
48363;SDS011;34170;54.364;18.582;2023-03-21T14:09:08;18.13;;;5.70;;
48363;SDS011;34170;54.364;18.582;2023-03-21T14:11:44;18.75;;;5.30;;
48363;SDS011;34170;54.364;18.582;2023-03-21T14:14:14;14.25;;;5.50;;
48363;SDS011;34170;54.364;18.582;2023-03-21T14:16:42;15.82;;;5.82;;
48363;SDS011;34170;54.364;18.582;2023-03-21T14:19:11;10.60;;;5.18;;
48363;SDS011;34170;54.364;18.582;2023-03-21T14:21:44;16.08;;;4.90;;
48363;SDS011;34170;54.364;18.582;2023-03-21T14:24:14;12.50;;;5.20;;
48363;SDS011;34170;54.364;18.582;2023-03-21T14:26:45;15.60;;;4.88;;
48363;SDS011;34170;54.364;18.582;2023-03-21T14:29:21;15.63;;;5.13;;
48363;SDS011;34170;54.364;18.582;2023-03-21T14:31:54;9.00;;;4.15;;
48363;SDS011;34170;54.364;18.582;2023-03-21T14:34:22;14.13;;;4.82;;
48363;SDS011;34170;54.364;18.582;2023-03-21T14:36:52;18.35;;;4.65;;
48363;SDS011;34170;54.364;18.582;2023-03-21T14:39:26;11.27;;;4.30;;
48363;SDS011;34170;54.364;18.582;2023-03-21T14:41:56;14.95;;;4.53;;
48363;SDS011;34170;54.364;18.582;2023-03-21T14:44:36;16.73;;;4.28;;
48363;SDS011;34170;54.364;18.582;2023-03-21T14:47:23;15.55;;;4.50;;
48363;SDS011;34170;54.364;18.582;2023-03-21T14:49:55;11.65;;;4.90;;
48363;SDS011;34170;54.364;18.582;2023-03-21T14:52:31;11.73;;;4.90;;
48363;SDS011;34170;54.364;18.582;2023-03-21T14:55:00;13.25;;;4.70;;
48363;SDS011;34170;54.364;18.582;2023-03-21T14:57:31;10.23;;;4.35;;
48363;SDS011;34170;54.364;18.582;2023-03-21T15:00:00;13.95;;;5.18;;
48363;SDS011;34170;54.364;18.582;2023-03-21T15:02:40;12.98;;;5.13;;
48363;SDS011;34170;54.364;18.582;2023-03-21T15:10:53;10.70;;;3.90;;
48363;SDS011;34170;54.364;18.582;2023-03-21T15:13:36;8.82;;;4.50;;
48363;SDS011;34170;54.364;18.582;2023-03-21T15:16:11;10.02;;;4.68;;
48363;SDS011;34170;54.364;18.582;2023-03-21T15:18:42;19.40;;;5.72;;
48363;SDS011;34170;54.364;18.582;2023-03-21T15:21:22;12.10;;;4.97;;
48363;SDS011;34170;54.364;18.582;2023-03-21T15:24:15;11.85;;;4.93;;
48363;SDS011;34170;54.364;18.582;2023-03-21T15:26:48;11.20;;;4.38;;
48363;SDS011;34170;54.364;18.582;2023-03-21T15:29:17;14.85;;;5.43;;
48363;SDS011;34170;54.364;18.582;2023-03-21T15:31:46;12.82;;;4.43;;
48363;SDS011;34170;54.364;18.582;2023-03-21T15:34:20;18.23;;;4.85;;
48363;SDS011;34170;54.364;18.582;2023-03-21T15:36:55;14.80;;;4.53;;
48363;SDS011;34170;54.364;18.582;2023-03-21T15:39:25;18.15;;;5.22;;
48363;SDS011;34170;54.364;18.582;2023-03-21T15:42:02;16.60;;;5.07;;
48363;SDS011;34170;54.364;18.582;2023-03-21T15:44:50;22.08;;;6.40;;
48363;SDS011;34170;54.364;18.582;2023-03-21T15:47:40;14.18;;;5.80;;
48363;SDS011;34170;54.364;18.582;2023-03-21T15:50:15;11.65;;;5.28;;
48363;SDS011;34170;54.364;18.582;2023-03-21T15:53:00;14.75;;;5.35;;
48363;SDS011;34170;54.364;18.582;2023-03-21T15:58:16;15.57;;;5.65;;
48363;SDS011;34170;54.364;18.582;2023-03-21T16:00:47;13.93;;;5.40;;
48363;SDS011;34170;54.364;18.582;2023-03-21T16:03:22;17.13;;;5.50;;
48363;SDS011;34170;54.364;18.582;2023-03-21T16:08:46;30.70;;;7.32;;
48363;SDS011;34170;54.364;18.582;2023-03-21T16:13:51;17.08;;;5.95;;
48363;SDS011;34170;54.364;18.582;2023-03-21T16:16:20;28.90;;;5.88;;
48363;SDS011;34170;54.364;18.582;2023-03-21T16:18:50;20.53;;;5.93;;
48363;SDS011;34170;54.364;18.582;2023-03-21T16:21:20;20.95;;;6.30;;
48363;SDS011;34170;54.364;18.582;2023-03-21T16:23:49;32.00;;;7.53;;
48363;SDS011;34170;54.364;18.582;2023-03-21T16:26:20;16.27;;;5.93;;
48363;SDS011;34170;54.364;18.582;2023-03-21T16:28:51;19.42;;;6.15;;
48363;SDS011;34170;54.364;18.582;2023-03-21T16:31:20;19.02;;;5.70;;
48363;SDS011;34170;54.364;18.582;2023-03-21T16:33:49;22.35;;;5.50;;
48363;SDS011;34170;54.364;18.582;2023-03-21T16:36:18;13.50;;;4.78;;
48363;SDS011;34170;54.364;18.582;2023-03-21T16:38:47;17.88;;;5.47;;
48363;SDS011;34170;54.364;18.582;2023-03-21T16:41:16;12.80;;;4.72;;
48363;SDS011;34170;54.364;18.582;2023-03-21T16:43:43;18.13;;;5.20;;
48363;SDS011;34170;54.364;18.582;2023-03-21T16:48:43;12.70;;;4.40;;
48363;SDS011;34170;54.364;18.582;2023-03-21T16:51:15;14.75;;;4.65;;
48363;SDS011;34170;54.364;18.582;2023-03-21T16:53:47;5.47;;;2.75;;
48363;SDS011;34170;54.364;18.582;2023-03-21T16:56:22;7.82;;;3.10;;
48363;SDS011;34170;54.364;18.582;2023-03-21T16:58:53;9.40;;;3.78;;
48363;SDS011;34170;54.364;18.582;2023-03-21T17:01:21;8.25;;;3.67;;
48363;SDS011;34170;54.364;18.582;2023-03-21T17:03:53;11.10;;;3.40;;
48363;SDS011;34170;54.364;18.582;2023-03-21T17:06:22;8.65;;;3.70;;
48363;SDS011;34170;54.364;18.582;2023-03-21T17:08:53;10.02;;;3.40;;
48363;SDS011;34170;54.364;18.582;2023-03-21T17:11:22;7.68;;;3.28;;
48363;SDS011;34170;54.364;18.582;2023-03-21T17:13:52;6.38;;;3.00;;
48363;SDS011;34170;54.364;18.582;2023-03-21T17:16:22;12.65;;;3.90;;
48363;SDS011;34170;54.364;18.582;2023-03-21T17:18:53;16.30;;;4.38;;